Terminal Aerodrome Forecast
Issued by NWS Grand Forks, ND

Home | Current Version | Previous Version | Graphics & Text | Print | Product List | Glossary On
Versions: 1 2 3 4 5 6 7 8 9 10 11 12 13 14 15 16 17
428
FTUS43 KFGF 171618 AAA
TAFGFK
TAF AMD
KGFK 171618Z 1716/1812 30013KT P6SM FEW200
     FM172300 28010KT P6SM FEW250
     FM180400 26004KT P6SM SCT250
     FM180800 09004KT P6SM BKN080
     FM181100 08007KT 4SM -SN OVC045=

USA.gov is the U.S. government's official web portal to all federal, state and local government web resources and services.